Nong Khai, Thailand
Current Conditions -  °F | °C
As of 5:30 PM on Friday 19 Dec 2014 (Local Time) from VLVT Reporting Station
Clear Clear  
Wind Chill: 27°   Ceiling: Unl
Heat Index: 27°   Visibility: 4mi
Dew Point: 12°   Wind: 2mph
Humidity: 39%   Direction: 360°N
Pressure: 29.97"   Gusts: NA
Location:  17.88°N, 102.74°E
Report Text: VLVT 191030Z 36002KT 7000 NSC 27/12 Q1015 NOSIG
Loading
Personal Weather Stations






























Interactive Weather Map New forecast layout! Learn more

10-Day Weather Forecast

Advertisements
Track Severe Weather on mobile